Time;durP1;ratioP1;P1;durP2;ratioP2;P2;SDS_P1;SDS_P2;PMS_P1;PMS_P2;Temp;Humidity;BMP_temperature;BMP_pressure;BME280_temperature;BME280_humidity;BME280_pressure;Samples;Min_cycle;Max_cycle;Signal;HPM_P1;HPM_P2
2022/01/13 00:00:26;;;;;;;;;22.75;14.75;;;;;5.00;72.26;103315.22;5098283;27;45359;-62
2022/01/13 00:02:52;;;;;;;;;20.75;15.25;;;;;5.00;72.39;103315.22;5096621;27;45875;-62
2022/01/13 00:05:19;;;;;;;;;19.25;14.25;;;;;4.99;72.20;103317.84;5095808;27;61449;-66
2022/01/13 00:07:44;;;;;;;;;23.50;15.00;;;;;5.01;72.30;103316.06;5096555;27;45559;-64
2022/01/13 00:10:10;;;;;;;;;21.00;16.50;;;;;5.00;72.23;103314.34;5096118;27;62775;-66
2022/01/13 00:12:37;;;;;;;;;20.75;15.75;;;;;4.99;72.24;103318.72;5078987;27;45506;-60
2022/01/13 00:20:30;;;;;;;;;23.50;18.50;;;;;4.94;72.49;103323.16;5097927;27;45318;-66
2022/01/13 00:25:39;;;;;;;;;21.25;18.50;;;;;4.92;72.47;103322.31;5097792;27;46030;-62
2022/01/13 00:28:16;;;;;;;;;27.00;20.00;;;;;4.90;72.30;103317.13;5097558;27;45627;-64
2022/01/13 00:30:42;;;;;;;;;24.75;18.00;;;;;4.92;72.36;103321.44;5049013;27;45320;-62
2022/01/13 00:33:10;;;;;;;;;21.75;15.25;;;;;4.92;72.63;103321.44;5097582;27;45571;-63
2022/01/13 00:35:36;;;;;;;;;19.25;14.00;;;;;4.92;72.55;103313.63;5097653;27;45169;-64
2022/01/13 00:38:01;;;;;;;;;14.25;13.25;;;;;4.90;72.23;103316.28;5097381;27;53828;-63
2022/01/13 00:40:26;;;;;;;;;16.00;13.25;;;;;4.88;72.19;103311.06;5096613;27;68994;-64
2022/01/13 00:42:52;;;;;;;;;20.25;15.00;;;;;4.86;72.11;103312.84;5096448;27;72194;-65
2022/01/13 00:45:17;;;;;;;;;17.25;13.25;;;;;4.83;72.19;103307.69;5078357;27;69030;-63
2022/01/13 00:47:43;;;;;;;;;16.00;12.50;;;;;4.81;72.51;103304.28;5078420;27;62386;-66
2022/01/13 00:50:08;;;;;;;;;18.75;14.75;;;;;4.80;72.29;103304.31;5097461;27;45624;-62
2022/01/13 00:52:34;;;;;;;;;18.25;13.75;;;;;4.79;72.08;103306.03;5079035;27;46094;-63
2022/01/13 00:55:04;;;;;;;;;18.25;14.50;;;;;4.75;72.13;103304.41;5079254;27;45322;-66
2022/01/13 00:57:31;;;;;;;;;17.25;13.00;;;;;4.70;72.33;103301.03;5080196;27;45367;-63
2022/01/13 00:59:57;;;;;;;;;13.00;10.75;;;;;4.68;72.41;103313.22;5097637;27;45172;-63
2022/01/13 01:02:22;;;;;;;;;19.00;15.75;;;;;4.65;72.59;103308.06;5096029;27;45326;-63
2022/01/13 01:04:48;;;;;;;;;18.50;15.50;;;;;4.59;72.45;103306.41;5096264;27;72919;-64
2022/01/13 01:07:13;;;;;;;;;16.00;12.25;;;;;4.57;72.45;103316.88;5078089;27;60420;-64
2022/01/13 01:09:46;;;;;;;;;18.00;14.25;;;;;4.56;72.53;103312.56;5078620;27;51111;-63
2022/01/13 01:12:12;;;;;;;;;14.00;13.00;;;;;4.55;72.70;103312.56;5097207;27;46431;-63
2022/01/13 01:14:44;;;;;;;;;17.00;15.75;;;;;4.52;72.60;103321.31;5097150;27;45363;-66
2022/01/13 01:17:10;;;;;;;;;19.75;14.00;;;;;4.51;72.96;103330.00;5097321;27;45247;-63
2022/01/13 01:19:37;;;;;;;;;20.25;12.75;;;;;4.51;72.61;103326.53;5096153;27;69149;-63
2022/01/13 01:27:39;;;;;;;;;18.00;14.00;;;;;4.44;72.80;103321.47;5096880;27;45314;-63
2022/01/13 01:30:26;;;;;;;;;21.75;14.00;;;;;4.43;73.22;103306.72;5077985;27;45671;-62
2022/01/13 01:32:51;;;;;;;;;16.00;13.50;;;;;4.45;72.82;103323.19;5096597;27;45791;-63
2022/01/13 01:35:18;;;;;;;;;14.25;12.00;;;;;4.46;73.00;103331.84;5096852;27;45395;-64
2022/01/13 01:37:43;;;;;;;;;13.25;12.25;;;;;4.45;72.86;103327.50;5096970;27;45471;-61
2022/01/13 01:40:10;;;;;;;;;18.50;14.00;;;;;4.44;72.76;103325.78;5061633;27;45413;-62
2022/01/13 01:42:35;;;;;;;;;16.00;15.25;;;;;4.44;73.01;103323.19;5096483;27;47258;-64
2022/01/13 01:45:01;;;;;;;;;16.50;13.00;;;;;4.44;72.96;103326.66;5078517;27;46010;-61
2022/01/13 01:47:30;;;;;;;;;15.25;12.50;;;;;4.43;73.06;103321.47;5096728;27;45323;-67
2022/01/13 01:49:58;;;;;;;;;12.75;12.00;;;;;4.41;72.86;103321.50;5078647;27;45575;-59
2022/01/13 01:52:24;;;;;;;;;16.50;11.75;;;;;4.42;72.90;103323.22;5078332;27;46242;-65
2022/01/13 01:54:50;;;;;;;;;18.50;13.50;;;;;4.43;72.97;103326.69;5096518;27;45363;-65
2022/01/13 01:57:16;;;;;;;;;14.00;14.00;;;;;4.42;72.92;103325.84;5096750;27;45315;-63
2022/01/13 01:59:43;;;;;;;;;14.75;13.75;;;;;4.44;72.99;103331.00;5096538;27;45314;-64
2022/01/13 02:02:10;;;;;;;;;15.50;12.25;;;;;4.43;72.86;103327.56;5096395;27;46081;-63
2022/01/13 02:04:36;;;;;;;;;14.75;14.75;;;;;4.42;72.61;103319.75;5077634;27;45875;-64
2022/01/13 02:07:04;;;;;;;;;16.25;12.50;;;;;4.43;72.72;103324.06;5096435;27;45424;-65
2022/01/13 02:09:29;;;;;;;;;12.75;12.00;;;;;4.42;72.54;103337.97;5077931;27;45473;-63
2022/01/13 02:11:59;;;;;;;;;22.75;15.75;;;;;4.40;72.52;103329.34;5061204;27;46062;-61
2022/01/13 02:16:55;;;;;;;;;17.00;13.00;;;;;4.39;72.66;103341.50;5099967;27;45358;-64
2022/01/13 02:19:20;;;;;;;;;18.00;13.50;;;;;4.37;72.32;103332.88;5064780;27;45504;-63
2022/01/13 02:21:46;;;;;;;;;12.25;11.50;;;;;4.36;72.72;103328.53;5064406;27;46617;-64
2022/01/13 02:24:11;;;;;;;;;12.00;11.50;;;;;4.37;72.74;103337.19;5081533;27;45450;-62
2022/01/13 02:26:36;;;;;;;;;18.25;13.25;;;;;4.36;72.56;103332.88;5081475;27;45489;-64
2022/01/13 02:29:02;;;;;;;;;11.50;11.25;;;;;4.37;72.57;103329.38;5099393;27;45644;-63
2022/01/13 02:31:28;;;;;;;;;18.50;9.75;;;;;4.34;72.40;103330.31;5099372;27;46456;-61
2022/01/13 02:33:54;;;;;;;;;18.50;9.50;;;;;4.31;72.60;103323.41;5098751;27;63226;-63
2022/01/13 02:36:20;;;;;;;;;17.00;12.25;;;;;4.29;72.26;103322.56;5099618;27;45405;-63
2022/01/13 02:38:49;;;;;;;;;13.25;11.00;;;;;4.28;72.38;103327.81;5099527;27;45299;-61
2022/01/13 02:41:15;;;;;;;;;14.25;11.25;;;;;4.27;72.65;103324.31;5064085;27;45490;-66
2022/01/13 02:43:40;;;;;;;;;16.00;12.25;;;;;4.26;72.39;103332.19;5099443;27;45326;-64
2022/01/13 02:49:19;;;;;;;;;10.75;10.50;;;;;4.26;72.58;103321.75;5075101;27;45569;-63
2022/01/13 02:51:45;;;;;;;;;15.50;9.75;;;;;4.24;72.54;103329.59;5088230;27;45499;-63
2022/01/13 02:54:11;;;;;;;;;17.75;10.00;;;;;4.23;72.45;103329.63;5119604;27;45440;-63
2022/01/13 02:56:37;;;;;;;;;12.75;11.25;;;;;4.20;72.54;103320.13;5101384;27;45310;-64
2022/01/13 02:59:02;;;;;;;;;10.25;9.75;;;;;4.20;72.72;103324.47;5119828;27;45492;-62
2022/01/13 03:01:27;;;;;;;;;12.00;9.00;;;;;4.20;72.56;103327.94;5083882;27;48850;-64
2022/01/13 03:03:53;;;;;;;;;10.50;9.00;;;;;4.18;72.49;103316.69;5118787;27;70612;-62
2022/01/13 03:06:31;;;;;;;;;15.75;10.25;;;;;4.19;72.90;103314.94;5118803;27;64341;-62
2022/01/13 03:08:56;;;;;;;;;13.75;11.00;;;;;4.19;72.36;103322.75;5103209;27;45386;-64
2022/01/13 03:11:29;;;;;;;;;9.00;9.00;;;;;4.16;72.60;103316.72;5118547;27;66261;-62
2022/01/13 03:13:55;;;;;;;;;7.50;7.50;;;;;4.16;72.52;103316.72;5085051;27;46184;-63
2022/01/13 03:16:20;;;;;;;;;9.00;8.75;;;;;4.16;72.29;103321.06;5119102;27;53588;-64
2022/01/13 03:18:46;;;;;;;;;13.75;10.25;;;;;4.16;72.51;103321.06;5119254;27;46277;-63
2022/01/13 03:21:11;;;;;;;;;12.00;8.50;;;;;4.15;72.22;103319.34;5099957;27;71990;-61
2022/01/13 03:23:37;;;;;;;;;14.00;11.25;;;;;4.13;72.11;103315.91;5118429;27;65559;-61
2022/01/13 03:26:02;;;;;;;;;11.25;10.25;;;;;4.12;72.35;103315.03;5082940;27;45207;-62
2022/01/13 03:28:30;;;;;;;;;10.75;8.50;;;;;4.11;72.60;103308.13;5100864;27;45592;-63
2022/01/13 03:30:56;;;;;;;;;12.75;11.25;;;;;4.13;72.52;103316.75;5100984;27;45639;-62
2022/01/13 03:33:22;;;;;;;;;11.75;8.25;;;;;4.11;72.52;103312.47;5100816;27;45396;-61
2022/01/13 03:35:47;;;;;;;;;12.75;9.00;;;;;4.11;72.12;103313.31;5099754;27;68527;-62
2022/01/13 03:38:12;;;;;;;;;11.50;10.75;;;;;4.10;72.21;103318.56;5082720;27;64507;-63
2022/01/13 03:40:38;;;;;;;;;17.25;11.00;;;;;4.08;71.89;103313.38;5099415;27;74553;-62
2022/01/13 03:43:04;;;;;;;;;13.25;9.75;;;;;4.06;72.51;103311.69;5100722;27;45353;-62
2022/01/13 03:45:30;;;;;;;;;11.25;10.25;;;;;4.06;72.46;103320.34;5083698;27;45338;-63
2022/01/13 03:47:56;;;;;;;;;12.00;10.50;;;;;4.05;72.36;103322.97;5119152;27;45202;-65
2022/01/13 03:50:21;;;;;;;;;12.75;11.50;;;;;4.03;72.12;103330.78;5117864;27;73642;-64
2022/01/13 03:53:01;;;;;;;;;9.25;7.00;;;;;4.03;72.53;103324.75;5117845;27;69335;-63
2022/01/13 03:55:38;;;;;;;;;13.00;7.00;;;;;4.01;72.57;103320.44;5118855;27;45438;-65
2022/01/13 03:58:41;;;;;;;;;10.50;9.00;;;;;4.01;72.85;103324.75;5118929;27;45224;-63
2022/01/13 04:01:44;;;;;;;;;9.25;8.00;;;;;4.03;72.70;103330.78;5118699;27;45403;-61
2022/01/13 04:04:09;;;;;;;;;9.50;6.75;;;;;4.04;72.42;103326.47;5118652;27;45935;-63
2022/01/13 04:06:38;;;;;;;;;8.25;7.00;;;;;4.04;72.27;103336.88;5117675;27;67064;-63
2022/01/13 04:09:22;;;;;;;;;11.50;8.00;;;;;4.00;72.15;103333.44;5118790;27;45537;-63
2022/01/13 04:11:47;;;;;;;;;7.50;7.00;;;;;3.98;72.34;103328.28;5102525;27;46281;-63
2022/01/13 04:14:13;;;;;;;;;18.00;8.25;;;;;3.96;72.50;103316.19;5118544;27;47718;-63
2022/01/13 04:16:38;;;;;;;;;11.00;8.00;;;;;3.96;72.65;103318.78;5118549;27;45266;-63
2022/01/13 04:19:05;;;;;;;;;10.75;8.00;;;;;3.96;72.38;103318.78;5099116;27;71072;-63
2022/01/13 04:21:35;;;;;;;;;15.75;8.25;;;;;3.95;72.49;103319.69;5100084;27;46408;-65
2022/01/13 04:24:02;;;;;;;;;11.00;8.25;;;;;3.93;72.67;103311.88;5099863;27;45421;-65
2022/01/13 04:26:29;;;;;;;;;12.00;7.75;;;;;3.95;72.93;103315.31;5099997;27;45360;-64
2022/01/13 04:29:21;;;;;;;;;11.75;10.50;;;;;3.95;72.86;103299.72;5099983;27;45585;-63
2022/01/13 04:31:48;;;;;;;;;13.50;9.50;;;;;3.95;72.81;103294.50;5117847;27;45358;-63
2022/01/13 04:34:13;;;;;;;;;14.50;8.75;;;;;3.97;72.70;103310.09;5118345;27;45302;-64
2022/01/13 04:36:39;;;;;;;;;9.50;8.00;;;;;3.96;73.07;103304.03;5098838;27;60484;-62
2022/01/13 04:39:05;;;;;;;;;11.50;8.25;;;;;3.96;73.26;103309.22;5118250;27;45707;-63
2022/01/13 04:41:35;;;;;;;;;13.75;8.25;;;;;3.98;72.89;103312.66;5082627;27;47601;-62
2022/01/13 04:44:11;;;;;;;;;10.50;8.00;;;;;3.98;73.11;103304.00;5118199;27;45333;-62
2022/01/13 04:46:36;;;;;;;;;10.50;8.75;;;;;4.00;72.86;103305.69;5099692;27;45450;-63
2022/01/13 04:49:02;;;;;;;;;8.25;8.25;;;;;4.01;72.96;103301.34;5118186;27;45488;-62
2022/01/13 04:51:28;;;;;;;;;10.50;7.25;;;;;4.03;73.09;103301.34;5099433;27;46742;-62
2022/01/13 04:53:53;;;;;;;;;8.00;7.75;;;;;4.04;73.17;103306.50;5081670;27;68072;-63
2022/01/13 04:56:29;;;;;;;;;10.75;7.50;;;;;4.06;72.93;103306.50;5099529;27;45341;-62
2022/01/13 04:58:54;;;;;;;;;12.75;7.00;;;;;4.05;72.65;103308.22;5118189;27;45149;-63
2022/01/13 05:01:20;;;;;;;;;9.00;8.00;;;;;4.04;72.56;103311.69;5099569;27;45497;-62
2022/01/13 05:03:45;;;;;;;;;9.25;8.25;;;;;4.05;72.53;103312.56;5116840;27;68361;-63
2022/01/13 05:06:12;;;;;;;;;14.00;9.00;;;;;4.04;72.65;103316.06;5098826;27;58340;-61
2022/01/13 05:08:38;;;;;;;;;12.25;8.50;;;;;4.04;72.69;103303.06;5099748;27;45562;-64
2022/01/13 05:11:03;;;;;;;;;8.25;7.00;;;;;4.04;72.61;103303.06;5117525;27;50107;-62
2022/01/13 05:13:29;;;;;;;;;13.50;8.75;;;;;4.03;72.62;103309.97;5116860;27;64562;-63
2022/01/13 05:15:55;;;;;;;;;12.50;11.00;;;;;4.01;72.59;103310.03;5099400;27;45332;-64
2022/01/13 05:18:41;;;;;;;;;14.00;9.00;;;;;4.01;72.73;103312.63;5117722;27;45430;-65
2022/01/13 05:21:18;;;;;;;;;19.25;11.00;;;;;4.02;72.77;103313.47;5084930;27;48027;-65
2022/01/13 05:23:43;;;;;;;;;12.00;9.00;;;;;3.99;72.67;103298.78;5100918;27;45280;-63
2022/01/13 05:26:09;;;;;;;;;13.25;10.50;;;;;4.00;72.77;103305.69;5116624;27;67549;-61
2022/01/13 05:28:35;;;;;;;;;13.25;9.25;;;;;3.98;72.72;103307.47;5099112;27;45286;-62
2022/01/13 05:31:00;;;;;;;;;14.00;12.00;;;;;3.99;72.53;103316.13;5117005;27;56150;-61
2022/01/13 05:33:25;;;;;;;;;9.50;9.50;;;;;3.96;72.60;103309.22;5116682;27;66744;-63
2022/01/13 05:35:51;;;;;;;;;9.25;8.25;;;;;3.95;72.53;103312.72;5117003;27;57262;-62
2022/01/13 05:38:18;;;;;;;;;9.00;7.50;;;;;3.93;72.67;103308.44;5116556;27;67299;-64
2022/01/13 05:40:44;;;;;;;;;10.00;7.50;;;;;3.90;72.72;103306.72;5117330;27;45565;-63
2022/01/13 05:43:09;;;;;;;;;7.50;7.50;;;;;3.87;72.82;103298.97;5097992;27;68249;-61
2022/01/13 05:45:34;;;;;;;;;10.50;8.75;;;;;3.88;72.96;103305.03;5098828;27;45594;-62
2022/01/13 05:48:00;;;;;;;;;13.00;8.00;;;;;3.87;72.85;103298.97;5081171;27;61073;-61
2022/01/13 05:50:26;;;;;;;;;10.25;7.25;;;;;3.87;73.00;103298.97;5102455;27;45379;-63
2022/01/13 05:52:51;;;;;;;;;14.00;11.00;;;;;3.85;73.12;103292.94;5102389;27;45367;-62
2022/01/13 05:55:17;;;;;;;;;9.25;7.00;;;;;3.85;72.86;103299.00;5102600;27;45494;-62
2022/01/13 05:57:42;;;;;;;;;14.50;9.25;;;;;3.88;73.22;103308.50;5102562;27;45497;-61
2022/01/13 06:00:09;;;;;;;;;10.25;7.50;;;;;3.86;72.87;103303.31;5120693;27;45643;-63
2022/01/13 06:02:35;;;;;;;;;9.25;9.00;;;;;3.86;72.85;103299.84;5119644;27;45373;-62
2022/01/13 06:05:00;;;;;;;;;7.75;6.25;;;;;3.86;72.68;103307.66;5120756;27;45299;-63
2022/01/13 06:07:26;;;;;;;;;14.50;9.25;;;;;3.85;72.66;103306.81;5119918;27;60565;-61
2022/01/13 06:09:51;;;;;;;;;12.75;9.25;;;;;3.84;73.10;103304.22;5084770;27;46084;-64
2022/01/13 06:12:19;;;;;;;;;11.00;8.00;;;;;3.84;72.73;103306.81;5101976;27;45266;-64
2022/01/13 06:14:44;;;;;;;;;12.00;11.50;;;;;3.83;72.75;103299.88;5120471;27;45277;-62
2022/01/13 06:17:10;;;;;;;;;16.75;11.00;;;;;3.83;72.76;103305.97;5102068;27;45268;-61
2022/01/13 06:19:35;;;;;;;;;16.50;9.75;;;;;3.82;73.11;103300.78;5120374;27;47225;-64
2022/01/13 06:22:01;;;;;;;;;9.50;8.00;;;;;3.80;72.87;103307.75;5119681;27;59490;-62
2022/01/13 06:24:26;;;;;;;;;13.50;7.50;;;;;3.78;73.20;103301.69;5119251;27;64731;-63
2022/01/13 06:26:51;;;;;;;;;11.75;9.75;;;;;3.78;73.08;103302.56;5120398;27;45526;-62
2022/01/13 06:29:17;;;;;;;;;12.75;8.00;;;;;3.79;73.01;103298.22;5100698;27;63979;-63
2022/01/13 06:31:42;;;;;;;;;11.50;7.75;;;;;3.78;73.21;103296.50;5118939;27;65211;-63
2022/01/13 06:34:07;;;;;;;;;12.25;8.00;;;;;3.78;73.07;103296.50;5100736;27;68301;-63
2022/01/13 06:36:33;;;;;;;;;11.00;7.50;;;;;3.78;73.22;103304.31;5119617;27;45365;-63
2022/01/13 06:38:59;;;;;;;;;12.25;6.50;;;;;3.79;72.98;103306.91;5119356;27;46022;-65
2022/01/13 06:41:24;;;;;;;;;11.75;8.00;;;;;3.79;73.08;103301.69;5101204;27;45327;-65
2022/01/13 06:43:49;;;;;;;;;10.25;7.75;;;;;3.78;72.94;103302.56;5101013;27;53070;-63
2022/01/13 06:46:15;;;;;;;;;8.50;8.25;;;;;3.79;72.94;103306.03;5100810;27;54791;-63
2022/01/13 06:48:41;;;;;;;;;7.75;6.00;;;;;3.80;72.83;103302.53;5101357;27;45527;-64
2022/01/13 06:51:07;;;;;;;;;8.00;7.00;;;;;3.80;73.00;103308.63;5119812;27;45177;-61
2022/01/13 06:53:32;;;;;;;;;6.50;6.00;;;;;3.80;72.76;103305.13;5119201;27;56295;-64
2022/01/13 06:55:58;;;;;;;;;10.50;6.00;;;;;3.79;72.90;103312.09;5119729;27;45290;-61
2022/01/13 06:58:23;;;;;;;;;11.00;8.00;;;;;3.81;72.84;103309.47;5100316;27;66721;-63
2022/01/13 07:00:48;;;;;;;;;11.25;7.00;;;;;3.79;72.73;103311.22;5118651;27;69607;-61
2022/01/13 07:03:14;;;;;;;;;7.75;7.25;;;;;3.78;72.97;103306.91;5118912;27;61345;-63
2022/01/13 07:05:39;;;;;;;;;8.75;7.75;;;;;3.79;72.98;103314.69;5118980;27;54134;-61
2022/01/13 07:08:05;;;;;;;;;12.00;6.00;;;;;3.79;73.19;103313.81;5101028;27;45487;-63
2022/01/13 07:10:30;;;;;;;;;9.25;8.00;;;;;3.79;72.90;103316.44;5083942;27;45360;-63
2022/01/13 07:12:55;;;;;;;;;8.75;6.75;;;;;3.79;73.16;103319.03;5119509;27;45701;-63
2022/01/13 07:15:21;;;;;;;;;9.00;7.75;;;;;3.78;73.50;103323.38;5099951;27;67607;-65
2022/01/13 07:17:46;;;;;;;;;8.00;6.25;;;;;3.81;73.36;103323.34;5099942;27;68000;-63
2022/01/13 07:20:12;;;;;;;;;9.75;7.75;;;;;3.82;73.12;103321.59;5083213;27;59358;-64
2022/01/13 07:22:37;;;;;;;;;9.25;7.25;;;;;3.82;73.40;103322.47;5100688;27;45378;-63
2022/01/13 07:25:04;;;;;;;;;15.25;8.50;;;;;3.82;73.27;103313.78;5119097;27;45176;-64
2022/01/13 07:27:30;;;;;;;;;12.75;7.50;;;;;3.83;73.68;103312.91;5119014;27;45519;-63
2022/01/13 07:29:55;;;;;;;;;13.25;8.25;;;;;3.82;73.19;103317.25;5096958;27;45374;-63
2022/01/13 07:32:20;;;;;;;;;11.00;9.00;;;;;3.84;73.34;103314.63;5098162;27;45443;-65
2022/01/13 07:34:46;;;;;;;;;12.50;7.50;;;;;3.85;72.98;103314.59;5096156;27;68735;-63
2022/01/13 07:37:11;;;;;;;;;10.50;8.25;;;;;3.85;72.99;103309.41;5098285;27;45435;-63
2022/01/13 07:39:38;;;;;;;;;11.00;9.00;;;;;3.86;72.94;103318.06;5098255;27;45454;-64
2022/01/13 07:42:04;;;;;;;;;9.25;7.50;;;;;3.85;72.86;103314.59;5097150;27;45359;-62
2022/01/13 07:44:29;;;;;;;;;7.25;7.25;;;;;3.83;72.73;103311.16;5098399;27;45544;-62
2022/01/13 07:46:56;;;;;;;;;10.00;7.50;;;;;3.82;72.75;103316.38;5097849;27;45360;-62
2022/01/13 07:49:22;;;;;;;;;15.75;9.00;;;;;3.82;72.81;103311.19;5098075;27;45296;-61
2022/01/13 07:51:47;;;;;;;;;10.50;8.50;;;;;3.81;72.58;103317.25;5098174;27;45458;-62
2022/01/13 07:54:12;;;;;;;;;8.75;8.50;;;;;3.80;72.67;103308.63;5096069;27;65779;-65
2022/01/13 07:56:38;;;;;;;;;11.75;8.75;;;;;3.78;72.87;103306.91;5095678;27;70015;-63
2022/01/13 07:59:03;;;;;;;;;17.75;13.50;;;;;3.77;72.73;103310.38;5095698;27;68601;-64
2022/01/13 08:01:28;;;;;;;;;11.25;9.00;;;;;3.77;72.63;103312.97;5098102;27;45329;-64
2022/01/13 08:03:54;;;;;;;;;8.75;8.50;;;;;3.75;72.71;103310.44;5098164;27;45265;-66
2022/01/13 08:06:19;;;;;;;;;12.00;8.25;;;;;3.74;72.64;103310.44;5095644;27;61625;-60
2022/01/13 08:08:45;;;;;;;;;14.50;11.25;;;;;3.74;72.85;103311.31;5097072;27;61831;-61
2022/01/13 08:11:10;;;;;;;;;16.75;13.00;;;;;3.75;72.75;103314.75;5096397;27;59284;-63
2022/01/13 08:13:35;;;;;;;;;13.25;10.25;;;;;3.76;72.44;103311.28;5097738;27;45267;-64
2022/01/13 08:16:03;;;;;;;;;12.00;11.00;;;;;3.69;72.48;103300.97;5079329;27;46878;-64
2022/01/13 08:21:12;;;;;;;;;8.50;7.00;;;;;3.67;72.57;103301.88;5097928;27;45230;-65
2022/01/13 08:23:38;;;;;;;;;10.25;6.25;;;;;3.65;72.72;103307.09;5097334;27;55694;-63
2022/01/13 08:26:03;;;;;;;;;10.25;8.00;;;;;3.64;72.29;103310.59;5079174;27;52685;-63
2022/01/13 08:28:30;;;;;;;;;8.75;6.00;;;;;3.63;72.38;103319.28;5105097;27;45466;-63
2022/01/13 08:30:56;;;;;;;;;12.00;8.25;;;;;3.63;72.16;103313.19;5100369;27;45452;-63
2022/01/13 08:33:22;;;;;;;;;11.00;8.00;;;;;3.62;72.34;103314.94;5100287;27;45591;-62
2022/01/13 08:35:51;;;;;;;;;10.25;7.00;;;;;3.61;72.39;103312.34;5118531;27;46421;-62
2022/01/13 08:38:18;;;;;;;;;7.00;6.50;;;;;3.59;72.32;103314.13;5100260;27;45919;-64
2022/01/13 08:40:45;;;;;;;;;14.25;11.00;;;;;3.60;72.54;103316.72;5100126;27;45306;-64
2022/01/13 08:43:10;;;;;;;;;11.00;7.00;;;;;3.60;72.59;103311.50;5100014;27;45372;-65
2022/01/13 08:45:35;;;;;;;;;12.25;7.75;;;;;3.59;72.69;103312.41;5118065;27;45570;-65
2022/01/13 08:48:01;;;;;;;;;8.50;7.50;;;;;3.59;72.19;103314.13;5099564;27;45292;-65
2022/01/13 08:50:26;;;;;;;;;12.75;8.25;;;;;3.60;72.51;103324.50;5117279;27;68321;-63
2022/01/13 08:52:52;;;;;;;;;15.50;11.50;;;;;3.61;72.36;103325.34;5117120;27;61549;-66
2022/01/13 08:55:17;;;;;;;;;16.25;14.00;;;;;3.60;72.51;103315.84;5099354;27;45488;-64
2022/01/13 08:57:42;;;;;;;;;11.00;8.00;;;;;3.58;72.53;103318.47;5098623;27;68198;-63
2022/01/13 09:00:08;;;;;;;;;12.25;7.50;;;;;3.59;72.38;103324.53;5098592;27;45431;-63
2022/01/13 09:02:34;;;;;;;;;7.75;6.75;;;;;3.59;72.45;103322.78;5084229;27;45322;-64
2022/01/13 09:05:03;;;;;;;;;12.25;8.25;;;;;3.60;72.64;103321.03;5068281;27;70078;-64
2022/01/13 09:07:28;;;;;;;;;10.50;10.50;;;;;3.61;72.49;103326.22;5098609;27;45384;-64
2022/01/13 09:09:55;;;;;;;;;13.25;8.75;;;;;3.61;72.28;103325.34;5094489;27;45492;-64
2022/01/13 09:12:20;;;;;;;;;8.50;7.50;;;;;3.61;72.28;103325.34;5099425;27;45264;-65
2022/01/13 09:14:45;;;;;;;;;12.75;8.25;;;;;3.59;72.74;103333.19;5116518;27;75976;-63
2022/01/13 09:17:19;;;;;;;;;11.00;10.50;;;;;3.60;72.67;103340.13;5099418;27;45519;-64
2022/01/13 09:19:45;;;;;;;;;8.75;7.00;;;;;3.59;72.53;103340.13;5083499;27;45321;-63
2022/01/13 09:22:11;;;;;;;;;14.50;10.75;;;;;3.60;72.34;103344.44;5098808;27;45438;-65
2022/01/13 09:24:36;;;;;;;;;12.75;12.25;;;;;3.59;72.41;103335.78;5120244;27;45411;-63
2022/01/13 09:27:03;;;;;;;;;8.00;6.00;;;;;3.58;72.44;103347.06;5121268;27;45333;-65
2022/01/13 09:29:28;;;;;;;;;9.00;7.25;;;;;3.58;72.44;103354.00;5121187;27;45287;-64
2022/01/13 09:31:54;;;;;;;;;15.25;11.25;;;;;3.58;72.45;103357.47;5120532;27;58552;-65
2022/01/13 09:34:19;;;;;;;;;16.75;11.00;;;;;3.58;72.60;103359.19;5101880;27;68102;-62
2022/01/13 09:36:45;;;;;;;;;14.25;10.50;;;;;3.58;72.53;103360.06;5101744;27;65674;-63
2022/01/13 09:39:10;;;;;;;;;14.50;9.50;;;;;3.58;72.51;103367.88;5121234;27;45384;-62
2022/01/13 09:41:36;;;;;;;;;15.00;9.00;;;;;3.61;72.82;103362.63;5102801;27;45244;-63
2022/01/13 09:44:04;;;;;;;;;14.75;7.75;;;;;3.63;72.54;103360.88;5102642;27;45369;-64
2022/01/13 09:46:30;;;;;;;;;8.75;6.00;;;;;3.65;72.34;103359.13;5120751;27;45832;-63
2022/01/13 09:48:55;;;;;;;;;15.00;8.25;;;;;3.67;72.42;103359.97;5102422;27;45395;-62
2022/01/13 09:51:27;;;;;;;;;10.50;7.00;;;;;3.69;72.56;103368.59;5102375;27;45449;-63
2022/01/13 09:53:52;;;;;;;;;11.00;7.25;;;;;3.70;72.23;103370.31;5119956;27;68235;-65
2022/01/13 09:56:18;;;;;;;;;18.00;15.50;;;;;3.72;72.28;103372.88;5102430;27;45378;-60
2022/01/13 09:58:44;;;;;;;;;14.75;12.00;;;;;3.72;72.37;103367.69;5101201;27;65263;-63
2022/01/13 10:01:10;;;;;;;;;8.00;7.75;;;;;3.74;72.22;103367.66;5120898;27;45506;-62
2022/01/13 10:03:37;;;;;;;;;7.75;6.00;;;;;3.75;72.48;103371.97;5120480;27;45365;-64
2022/01/13 10:06:11;;;;;;;;;12.75;6.00;;;;;3.76;72.56;103371.09;5085032;27;45311;-63
2022/01/13 10:08:41;;;;;;;;;11.25;8.75;;;;;3.79;72.34;103378.84;5102222;27;45287;-61
2022/01/13 10:11:38;;;;;;;;;12.00;9.25;;;;;3.79;71.90;103373.66;5120292;27;45206;-61
2022/01/13 10:16:23;;;;;;;;;7.25;7.25;;;;;3.80;71.85;103376.25;5103705;27;46602;-62
2022/01/13 10:17:10;;;;;;;;;6.00;6.00;;;;;3.80;72.03;103370.16;5119999;27;45467;-63
2022/01/13 10:19:38;;;;;;;;;6.00;5.50;;;;;3.81;71.61;103362.34;5085261;27;45330;-65
2022/01/13 10:22:08;;;;;;;;;10.00;7.00;;;;;3.81;71.62;103358.88;5120558;27;45262;-68
2022/01/13 10:24:35;;;;;;;;;8.00;7.00;;;;;3.82;71.93;103355.41;5089588;27;46322;-64
2022/01/13 10:27:06;;;;;;;;;8.50;6.25;;;;;3.82;71.53;103364.06;5087617;27;45445;-64
2022/01/13 10:29:52;;;;;;;;;6.75;6.00;;;;;3.82;71.65;103351.06;5073654;27;45270;-61
2022/01/13 10:32:25;;;;;;;;;22.50;17.50;;;;;3.83;71.96;103349.31;5087100;27;45414;-63
2022/01/13 10:34:59;;;;;;;;;10.25;8.75;;;;;3.83;71.53;103360.59;5063751;27;46565;-66
2022/01/13 10:37:36;;;;;;;;;7.50;6.75;;;;;3.85;71.24;103360.56;5069862;27;45995;-63
2022/01/13 10:40:11;;;;;;;;;7.50;5.00;;;;;3.84;71.20;103356.22;5084145;27;45472;-63
2022/01/13 10:45:28;;;;;;;;;8.00;6.50;;;;;3.82;71.04;103353.66;5069319;27;45367;-65
2022/01/13 10:47:56;;;;;;;;;10.00;6.50;;;;;3.82;70.99;103358.00;5084866;27;46082;-65
2022/01/13 10:50:22;;;;;;;;;8.00;6.00;;;;;3.80;70.72;103360.63;5104518;27;45505;-64
2022/01/13 10:52:49;;;;;;;;;8.00;7.50;;;;;3.80;70.50;103362.34;5082142;27;45568;-63
2022/01/13 10:55:23;;;;;;;;;6.00;6.00;;;;;3.77;70.58;103360.69;5081324;27;45556;-63
2022/01/13 10:57:49;;;;;;;;;8.00;6.00;;;;;3.76;70.87;103358.09;5066685;27;45922;-62
2022/01/13 11:00:17;;;;;;;;;9.00;6.50;;;;;3.76;71.09;103358.97;5081315;27;45607;-61
2022/01/13 11:02:59;;;;;;;;;10.75;7.00;;;;;3.79;71.02;103347.63;5089535;27;45478;-61
2022/01/13 11:05:25;;;;;;;;;6.75;6.75;;;;;3.79;71.02;103350.22;5079443;27;46537;-64
2022/01/13 11:07:50;;;;;;;;;11.00;7.25;;;;;3.81;70.78;103345.88;5096335;27;45637;-62
2022/01/13 11:10:16;;;;;;;;;9.25;7.75;;;;;3.81;70.78;103345.88;5097167;27;61678;-65
2022/01/13 11:12:44;;;;;;;;;9.00;7.00;;;;;3.80;71.46;103344.16;5078788;27;51500;-62
2022/01/13 11:15:16;;;;;;;;;7.50;6.50;;;;;3.82;71.15;103339.78;5082222;27;45368;-64
2022/01/13 11:17:43;;;;;;;;;7.50;6.75;;;;;3.85;71.17;103337.16;5080026;27;45508;-63
2022/01/13 11:20:14;;;;;;;;;11.50;8.75;;;;;3.86;71.25;103338.88;5080787;27;45439;-62
2022/01/13 11:22:41;;;;;;;;;20.75;15.00;;;;;3.87;71.58;103332.78;5097508;27;45513;-65
2022/01/13 11:25:08;;;;;;;;;12.50;8.75;;;;;3.90;71.26;103335.34;5081846;27;45434;-61
2022/01/13 11:27:34;;;;;;;;;8.50;8.00;;;;;3.92;71.57;103327.53;5079455;27;45280;-63
2022/01/13 11:30:23;;;;;;;;;9.75;8.00;;;;;3.97;71.55;103328.31;5079879;27;65132;-60
2022/01/13 11:32:50;;;;;;;;;9.50;7.75;;;;;4.02;71.66;103334.28;5079401;27;45615;-65
2022/01/13 11:35:22;;;;;;;;;16.50;8.25;;;;;4.05;71.63;103322.97;5081531;27;46480;-62
2022/01/13 11:37:47;;;;;;;;;16.00;11.25;;;;;4.09;71.46;103329.84;5097506;27;45255;-62
2022/01/13 11:40:28;;;;;;;;;18.25;13.50;;;;;4.12;71.67;103309.00;5069015;27;65700;-63
2022/01/13 11:42:58;;;;;;;;;28.25;26.75;;;;;4.15;71.45;103314.16;5097182;27;45394;-63
2022/01/13 11:45:23;;;;;;;;;10.00;7.25;;;;;4.16;71.04;103314.09;5098664;27;46623;-61
2022/01/13 11:47:51;;;;;;;;;13.75;12.25;;;;;4.18;71.24;103311.50;5095673;27;70394;-65
2022/01/13 11:50:23;;;;;;;;;12.75;8.75;;;;;4.19;71.37;103302.81;5079361;27;45451;-64